Aviation Digital Data Service (ADDS)

Output produced by METARs form (0939 UTC 29 November 2014)
found at http://aviationweather.gov/adds/metars/
 
KRUT 290538Z 2906/3006 12004KT P6SM FEW250 
     FM291700 19006KT P6SM BKN250 
     FM300300 16008KT 6SM -SHSN BR OVC050 AMD LTD TO CLD VIS AND WIND